createdAt,value
2023-05-19T00:01:00.532Z,15.76
2023-05-19T00:03:28.870Z,15.52
2023-05-19T00:05:59.218Z,15.46
2023-05-19T00:08:31.481Z,15.67
2023-05-19T00:12:13.537Z,15.89
2023-05-19T00:14:41.362Z,15.99
2023-05-19T00:18:23.382Z,15.91
2023-05-19T00:20:52.348Z,15.89
2023-05-19T00:24:35.520Z,15.78
2023-05-19T00:27:02.947Z,15.76
2023-05-19T00:30:45.818Z,15.65
2023-05-19T00:34:28.557Z,15.45
2023-05-19T00:36:56.079Z,15.36
2023-05-19T00:39:23.776Z,15.36
2023-05-19T00:41:51.049Z,15.43
2023-05-19T00:44:18.518Z,15.29
2023-05-19T00:46:46.564Z,15.46
2023-05-19T00:49:14.059Z,15.53
2023-05-19T00:51:41.894Z,15.54
2023-05-19T00:54:09.912Z,15.43
2023-05-19T00:56:38.053Z,15.24
2023-05-19T00:59:06.017Z,15.34
2023-05-19T01:01:33.564Z,15.23
2023-05-19T01:04:23.491Z,15.27
2023-05-19T01:06:55.502Z,15.31
2023-05-19T01:09:23.608Z,15.40
2023-05-19T01:11:51.559Z,15.56
2023-05-19T01:14:20.816Z,15.33
2023-05-19T01:17:27.618Z,15.59
2023-05-19T01:20:25.948Z,15.12
2023-05-19T01:23:24.149Z,15.38
2023-05-19T01:27:07.455Z,15.55
2023-05-19T01:30:50.703Z,15.55
2023-05-19T01:33:21.303Z,15.60
2023-05-19T01:35:51.117Z,15.64
2023-05-19T01:39:33.818Z,15.69
2023-05-19T01:43:16.758Z,15.72
2023-05-19T01:47:00.003Z,15.33
2023-05-19T01:50:42.597Z,15.44
2023-05-19T01:54:25.260Z,15.45
2023-05-19T01:58:07.783Z,15.36
2023-05-19T02:01:50.773Z,15.47
2023-05-19T02:04:42.768Z,15.23
2023-05-19T02:07:26.585Z,14.99
2023-05-19T02:11:09.996Z,14.82
2023-05-19T02:14:53.201Z,15.07
2023-05-19T02:17:23.369Z,15.24
2023-05-19T02:20:06.738Z,14.89
2023-05-19T02:22:34.742Z,14.98
2023-05-19T02:25:02.703Z,14.60
2023-05-19T02:27:36.041Z,14.76
2023-05-19T02:30:06.235Z,15.05
2023-05-19T02:32:34.099Z,14.97
2023-05-19T02:35:01.347Z,15.15
2023-05-19T02:37:29.273Z,15.19
2023-05-19T02:39:56.879Z,15.24
2023-05-19T02:42:24.147Z,15.31
2023-05-19T02:44:54.591Z,15.29
2023-05-19T02:47:24.823Z,15.16
2023-05-19T02:49:52.036Z,15.27
2023-05-19T02:52:19.590Z,15.36
2023-05-19T02:54:47.191Z,15.36
2023-05-19T02:57:14.588Z,15.41
2023-05-19T02:59:42.850Z,15.41
2023-05-19T03:02:10.550Z,15.42
2023-05-19T03:04:41.915Z,15.40
2023-05-19T03:07:11.101Z,15.29
2023-05-19T03:09:38.900Z,15.33
2023-05-19T03:12:07.821Z,15.33
2023-05-19T03:14:38.788Z,15.32
2023-05-19T03:17:10.258Z,15.24
2023-05-19T03:19:37.905Z,15.24
2023-05-19T03:22:05.613Z,15.02
2023-05-19T03:24:34.896Z,15.14
2023-05-19T03:27:05.929Z,15.17
2023-05-19T03:29:33.784Z,15.12
2023-05-19T03:32:01.746Z,15.06
2023-05-19T03:34:29.180Z,15.09
2023-05-19T03:37:08.806Z,14.99
2023-05-19T03:39:40.491Z,14.95
2023-05-19T03:42:07.841Z,14.84
2023-05-19T03:44:36.070Z,14.73
2023-05-19T03:47:03.553Z,14.63
2023-05-19T03:50:01.272Z,14.59
2023-05-19T03:52:57.965Z,14.45
2023-05-19T03:55:30.586Z,14.47
2023-05-19T03:57:57.919Z,14.45
2023-05-19T04:00:25.139Z,14.34
2023-05-19T04:02:52.508Z,14.29
2023-05-19T04:05:19.797Z,14.36
2023-05-19T04:07:47.149Z,14.27
2023-05-19T04:10:14.408Z,14.34
2023-05-19T04:12:41.686Z,14.27
2023-05-19T04:15:11.968Z,14.14
2023-05-19T04:17:39.767Z,14.05
2023-05-19T04:20:08.046Z,14.09
2023-05-19T04:22:35.327Z,14.05
2023-05-19T04:25:04.514Z,13.98
2023-05-19T04:27:32.049Z,14.04
2023-05-19T04:30:00.009Z,13.87
2023-05-19T04:32:27.210Z,13.95
2023-05-19T04:34:56.008Z,13.98
2023-05-19T04:37:26.710Z,14.01
2023-05-19T04:39:54.704Z,14.00
2023-05-19T04:42:26.097Z,13.89
2023-05-19T04:44:54.297Z,13.90
2023-05-19T04:47:28.004Z,13.99
2023-05-19T04:49:55.463Z,14.02
2023-05-19T04:52:24.022Z,14.15
2023-05-19T04:54:52.859Z,14.18
2023-05-19T04:57:20.306Z,14.22
2023-05-19T04:59:47.981Z,14.33
2023-05-19T05:02:16.347Z,14.44
2023-05-19T05:04:46.479Z,14.49
2023-05-19T05:07:14.382Z,14.53
2023-05-19T05:09:42.592Z,14.64
2023-05-19T05:12:13.027Z,14.78
2023-05-19T05:14:42.002Z,14.77
2023-05-19T05:17:13.199Z,14.97
2023-05-19T05:19:41.585Z,15.19
2023-05-19T05:22:10.108Z,15.28
2023-05-19T05:24:41.203Z,15.40
2023-05-19T05:27:10.202Z,15.44
2023-05-19T05:29:38.013Z,15.46
2023-05-19T05:32:08.013Z,15.35
2023-05-19T05:34:37.617Z,15.30
2023-05-19T05:37:05.830Z,15.46
2023-05-19T05:39:33.986Z,15.55
2023-05-19T05:42:01.627Z,15.52
2023-05-19T05:44:29.468Z,15.75
2023-05-19T05:46:58.080Z,15.88
2023-05-19T05:49:25.908Z,16.14
2023-05-19T05:54:30.261Z,16.34
2023-05-19T05:56:58.308Z,16.18
2023-05-19T05:59:25.616Z,16.31
2023-05-19T06:01:52.872Z,16.50
2023-05-19T06:04:21.410Z,15.98
2023-05-19T06:06:49.072Z,16.11
2023-05-19T06:09:21.544Z,16.53
2023-05-19T06:11:49.100Z,16.90
2023-05-19T06:14:17.202Z,16.94
2023-05-19T06:17:12.374Z,17.00
2023-05-19T06:19:39.634Z,16.78
2023-05-19T06:22:07.796Z,17.14
2023-05-19T06:24:36.235Z,17.17
2023-05-19T06:27:04.594Z,17.14
2023-05-19T06:29:31.856Z,16.96
2023-05-19T06:32:02.607Z,17.17
2023-05-19T06:34:31.231Z,17.06
2023-05-19T06:36:59.306Z,16.84
2023-05-19T06:39:26.839Z,17.00
2023-05-19T06:41:54.016Z,16.60
2023-05-19T06:44:44.183Z,16.78
2023-05-19T06:47:12.730Z,16.74
2023-05-19T06:49:39.975Z,16.73
2023-05-19T06:52:08.184Z,16.53
2023-05-19T06:54:35.864Z,16.71
2023-05-19T06:57:03.947Z,17.05
2023-05-19T06:59:31.225Z,16.42
2023-05-19T07:02:00.030Z,16.41
2023-05-19T07:04:27.509Z,17.01
2023-05-19T07:06:56.563Z,17.73
2023-05-19T07:09:24.614Z,17.66
2023-05-19T07:11:52.998Z,17.86
2023-05-19T07:14:21.032Z,17.71
2023-05-19T07:16:48.633Z,17.74
2023-05-19T07:19:16.154Z,18.13
2023-05-19T07:21:51.741Z,18.42
2023-05-19T07:24:21.453Z,18.49
2023-05-19T07:26:49.577Z,18.77
2023-05-19T07:29:17.227Z,18.94
2023-05-19T07:31:44.501Z,18.70
2023-05-19T07:34:11.876Z,18.26
2023-05-19T07:36:39.300Z,18.58
2023-05-19T07:39:09.262Z,17.92
2023-05-19T07:41:36.696Z,18.24
2023-05-19T07:44:07.786Z,18.50
2023-05-19T07:46:35.973Z,18.87
2023-05-19T07:49:04.269Z,19.05
2023-05-19T07:51:31.903Z,19.07
2023-05-19T07:53:59.537Z,18.72
2023-05-19T07:56:27.371Z,18.75
2023-05-19T07:58:54.785Z,18.97
2023-05-19T08:01:22.138Z,19.12
2023-05-19T08:03:49.888Z,19.11
2023-05-19T08:06:17.472Z,19.17
2023-05-19T08:08:45.292Z,19.16
2023-05-19T08:11:13.058Z,18.76
2023-05-19T08:13:41.188Z,19.25
2023-05-19T08:16:08.682Z,18.78
2023-05-19T08:18:36.033Z,18.70
2023-05-19T08:21:03.484Z,19.17
2023-05-19T08:23:30.994Z,18.49
2023-05-19T08:25:58.506Z,18.63
2023-05-19T08:28:26.206Z,18.56
2023-05-19T08:30:53.593Z,18.86
2023-05-19T08:33:21.644Z,19.17
2023-05-19T08:35:49.057Z,19.58
2023-05-19T08:38:16.434Z,19.79
2023-05-19T08:40:48.326Z,19.59
2023-05-19T08:43:15.968Z,19.69
2023-05-19T08:45:48.217Z,19.88
2023-05-19T08:48:19.389Z,20.08
2023-05-19T08:51:22.125Z,20.23
2023-05-19T08:53:59.626Z,20.31
2023-05-19T08:56:27.986Z,20.30
2023-05-19T08:59:00.298Z,20.05
2023-05-19T09:01:30.239Z,20.53
2023-05-19T09:03:58.626Z,20.66
2023-05-19T09:06:27.534Z,20.54
2023-05-19T09:08:54.888Z,20.69
2023-05-19T09:11:22.670Z,20.76
2023-05-19T09:13:50.783Z,20.86
2023-05-19T09:16:18.495Z,20.32
2023-05-19T09:19:04.375Z,20.40
2023-05-19T09:21:33.075Z,20.59
2023-05-19T09:24:08.406Z,20.17
2023-05-19T09:26:45.422Z,19.80
2023-05-19T09:29:19.298Z,19.71
2023-05-19T09:32:01.068Z,19.71
2023-05-19T09:34:32.132Z,19.27
2023-05-19T09:36:59.875Z,20.01
2023-05-19T09:39:28.815Z,20.39
2023-05-19T09:41:59.470Z,19.74
2023-05-19T09:44:31.332Z,20.06
2023-05-19T09:47:00.047Z,20.46
2023-05-19T09:49:30.143Z,20.47
2023-05-19T09:52:06.329Z,20.24
2023-05-19T09:54:34.816Z,20.61
2023-05-19T09:57:08.557Z,19.38
2023-05-19T09:59:39.103Z,19.94
2023-05-19T10:02:18.439Z,19.89
2023-05-19T10:04:47.489Z,19.33
2023-05-19T10:07:15.383Z,19.32
2023-05-19T10:09:47.953Z,19.36
2023-05-19T10:12:15.544Z,19.25
2023-05-19T10:14:42.933Z,19.23
2023-05-19T10:17:12.265Z,19.37
2023-05-19T10:19:40.404Z,19.39
2023-05-19T10:22:07.616Z,19.74
2023-05-19T10:24:34.876Z,19.76
2023-05-19T10:27:11.912Z,19.44
2023-05-19T10:29:50.329Z,20.33
2023-05-19T10:32:28.622Z,20.59
2023-05-19T10:35:24.242Z,20.68
2023-05-19T10:38:32.289Z,20.79
2023-05-19T10:41:11.921Z,20.62
2023-05-19T10:44:08.145Z,20.50
2023-05-19T10:46:37.741Z,20.68
2023-05-19T10:49:05.003Z,19.27
2023-05-19T10:51:34.392Z,19.70
2023-05-19T10:54:06.236Z,19.97
2023-05-19T10:56:36.183Z,20.02
2023-05-19T10:59:04.150Z,20.05
2023-05-19T11:01:37.270Z,20.22
2023-05-19T11:04:12.317Z,20.43
2023-05-19T11:06:41.163Z,20.56
2023-05-19T11:09:15.913Z,20.63
2023-05-19T11:11:55.343Z,20.63
2023-05-19T11:14:27.931Z,20.86
2023-05-19T11:17:00.621Z,20.59
2023-05-19T11:19:35.391Z,20.61
2023-05-19T11:22:14.262Z,20.33
2023-05-19T11:24:49.992Z,19.70
2023-05-19T11:27:40.224Z,19.06
2023-05-19T11:30:14.855Z,18.18
2023-05-19T11:32:44.204Z,18.96
2023-05-19T11:35:12.036Z,18.94
2023-05-19T11:37:41.514Z,19.34
2023-05-19T11:41:05.828Z,19.67
2023-05-19T11:44:48.323Z,19.71
2023-05-19T11:47:17.271Z,19.98
2023-05-19T11:49:57.732Z,20.28
2023-05-19T11:52:27.534Z,18.83
2023-05-19T11:56:11.033Z,18.49
2023-05-19T11:59:53.981Z,18.57
2023-05-19T12:03:37.155Z,19.32
2023-05-19T12:06:08.416Z,19.38
2023-05-19T12:08:36.584Z,18.12
2023-05-19T12:12:19.747Z,18.13
2023-05-19T12:16:02.951Z,18.96
2023-05-19T12:19:45.845Z,19.76
2023-05-19T12:22:16.185Z,19.65
2023-05-19T12:24:46.619Z,19.58
2023-05-19T12:28:29.733Z,19.87
2023-05-19T12:30:58.521Z,19.93
2023-05-19T12:33:26.254Z,19.65
2023-05-19T12:35:54.690Z,19.92
2023-05-19T12:38:22.922Z,20.18
2023-05-19T12:40:50.792Z,20.18
2023-05-19T12:43:25.622Z,19.59
2023-05-19T12:45:53.416Z,20.22
2023-05-19T12:48:22.953Z,20.44
2023-05-19T12:50:54.190Z,20.47
2023-05-19T12:53:21.495Z,20.18
2023-05-19T12:55:48.694Z,19.96
2023-05-19T12:58:16.556Z,19.92
2023-05-19T13:00:48.455Z,20.16
2023-05-19T13:03:20.341Z,20.28
2023-05-19T13:05:51.098Z,20.43
2023-05-19T13:08:23.972Z,20.10
2023-05-19T13:10:51.579Z,19.85
2023-05-19T13:13:19.319Z,19.68
2023-05-19T13:15:50.795Z,19.89
2023-05-19T13:18:18.817Z,19.99
2023-05-19T13:20:47.391Z,20.31
2023-05-19T13:23:17.005Z,19.66
2023-05-19T13:25:45.223Z,19.77
2023-05-19T13:28:13.258Z,19.51
2023-05-19T13:30:45.991Z,19.20
2023-05-19T13:33:13.518Z,19.15
2023-05-19T13:35:41.064Z,19.09
2023-05-19T13:38:10.628Z,19.57
2023-05-19T13:40:40.137Z,19.60
2023-05-19T13:43:08.806Z,19.68
2023-05-19T13:45:36.961Z,19.83
2023-05-19T13:48:04.790Z,20.21
2023-05-19T13:50:32.048Z,20.74
2023-05-19T13:52:59.664Z,20.91
2023-05-19T13:55:27.470Z,20.81
2023-05-19T13:57:55.189Z,21.09
2023-05-19T14:00:23.018Z,21.03
2023-05-19T14:02:50.406Z,21.08
2023-05-19T14:05:18.001Z,21.02
2023-05-19T14:07:46.629Z,21.24
2023-05-19T14:10:13.871Z,21.42
2023-05-19T14:13:06.480Z,20.67
2023-05-19T14:15:29.457Z,19.65
2023-05-19T14:17:58.935Z,19.31
2023-05-19T14:20:28.665Z,19.70
2023-05-19T14:22:57.209Z,19.83
2023-05-19T14:25:25.086Z,19.65
2023-05-19T14:27:52.405Z,20.24
2023-05-19T14:30:21.865Z,20.33
2023-05-19T14:32:49.466Z,20.38
2023-05-19T14:35:16.772Z,20.69
2023-05-19T14:37:44.069Z,20.92
2023-05-19T14:40:12.292Z,20.95
2023-05-19T14:42:39.455Z,20.92
2023-05-19T14:45:07.626Z,20.99
2023-05-19T14:47:34.852Z,21.18
2023-05-19T14:50:02.130Z,21.14
2023-05-19T14:52:29.372Z,21.19
2023-05-19T14:54:57.057Z,20.70
2023-05-19T14:57:24.871Z,20.70
2023-05-19T14:59:52.040Z,20.09
2023-05-19T15:02:19.191Z,19.93
2023-05-19T15:04:46.711Z,19.13
2023-05-19T15:07:13.988Z,19.56
2023-05-19T15:09:41.283Z,19.68
2023-05-19T15:12:08.792Z,20.13
2023-05-19T15:14:36.690Z,20.55
2023-05-19T15:17:04.499Z,20.62
2023-05-19T15:19:32.165Z,20.67
2023-05-19T15:22:00.106Z,20.76
2023-05-19T15:24:27.949Z,20.86
2023-05-19T15:26:56.262Z,20.08
2023-05-19T15:29:23.845Z,20.33
2023-05-19T15:31:54.606Z,20.57
2023-05-19T15:34:21.890Z,20.71
2023-05-19T15:36:49.117Z,20.63
2023-05-19T15:39:16.536Z,19.66
2023-05-19T15:41:44.192Z,19.87
2023-05-19T15:44:11.546Z,19.81
2023-05-19T15:46:38.792Z,20.18
2023-05-19T15:49:06.262Z,20.34
2023-05-19T15:51:34.541Z,19.72
2023-05-19T15:54:01.896Z,19.83
2023-05-19T15:56:29.271Z,20.24
2023-05-19T15:58:56.627Z,20.26
2023-05-19T16:01:24.004Z,20.48
2023-05-19T16:03:51.798Z,20.23
2023-05-19T16:06:19.444Z,20.47
2023-05-19T16:08:47.007Z,20.84
2023-05-19T16:11:14.756Z,21.24
2023-05-19T16:13:42.553Z,21.42
2023-05-19T16:16:10.194Z,21.64
2023-05-19T16:18:38.156Z,21.76
2023-05-19T16:21:06.377Z,22.03
2023-05-19T16:23:34.291Z,22.24
2023-05-19T16:26:01.861Z,22.38
2023-05-19T16:28:29.262Z,22.22
2023-05-19T16:31:00.600Z,22.08
2023-05-19T16:33:28.478Z,22.37
2023-05-19T16:35:58.068Z,22.39
2023-05-19T16:38:26.634Z,22.80
2023-05-19T16:40:53.878Z,23.02
2023-05-19T16:43:21.337Z,22.53
2023-05-19T16:45:49.151Z,22.84
2023-05-19T16:48:16.997Z,22.98
2023-05-19T16:50:44.257Z,22.88
2023-05-19T16:53:11.438Z,22.71
2023-05-19T16:55:38.679Z,22.38
2023-05-19T16:58:05.960Z,22.23
2023-05-19T17:00:33.406Z,22.44
2023-05-19T17:03:00.971Z,22.04
2023-05-19T17:05:36.261Z,21.98
2023-05-19T17:08:04.016Z,22.04
2023-05-19T17:10:32.131Z,22.02
2023-05-19T17:12:59.882Z,21.98
2023-05-19T17:15:27.454Z,21.98
2023-05-19T17:17:54.964Z,21.83
2023-05-19T17:20:22.386Z,21.95
2023-05-19T17:22:49.854Z,21.76
2023-05-19T17:25:17.516Z,21.63
2023-05-19T17:27:44.711Z,21.35
2023-05-19T17:30:13.994Z,21.44
2023-05-19T17:32:41.446Z,21.17
2023-05-19T17:35:09.158Z,21.17
2023-05-19T17:37:36.395Z,21.21
2023-05-19T17:40:04.451Z,21.12
2023-05-19T17:42:31.788Z,21.04
2023-05-19T17:44:59.118Z,20.79
2023-05-19T17:47:26.387Z,20.75
2023-05-19T17:49:53.751Z,20.70
2023-05-19T17:52:22.312Z,20.62
2023-05-19T17:54:50.688Z,20.47
2023-05-19T17:57:18.845Z,20.33
2023-05-19T17:59:46.708Z,20.35
2023-05-19T18:02:15.662Z,20.17
2023-05-19T18:04:43.783Z,20.06
2023-05-19T18:07:11.936Z,19.99
2023-05-19T18:09:48.049Z,19.85
2023-05-19T18:12:15.498Z,19.87
2023-05-19T18:14:43.358Z,19.87
2023-05-19T18:17:10.919Z,19.64
2023-05-19T18:19:38.378Z,19.59
2023-05-19T18:22:06.282Z,19.47
2023-05-19T18:24:34.113Z,19.43
2023-05-19T18:27:01.708Z,19.35
2023-05-19T18:29:30.738Z,19.22
2023-05-19T18:31:58.006Z,19.08
2023-05-19T18:34:25.498Z,19.07
2023-05-19T18:36:52.658Z,19.03
2023-05-19T18:39:20.509Z,18.95
2023-05-19T18:41:47.984Z,18.87
2023-05-19T18:44:15.680Z,18.79
2023-05-19T18:46:42.901Z,18.68
2023-05-19T18:49:11.863Z,18.58
2023-05-19T18:51:39.994Z,18.40
2023-05-19T18:54:07.764Z,18.29
2023-05-19T18:56:35.515Z,18.21
2023-05-19T18:59:02.801Z,18.09
2023-05-19T19:01:30.182Z,18.08
2023-05-19T19:03:57.868Z,17.93
2023-05-19T19:06:25.304Z,17.86
2023-05-19T19:08:52.535Z,17.81
2023-05-19T19:11:20.951Z,17.78
2023-05-19T19:13:51.363Z,17.71
2023-05-19T19:16:19.127Z,17.71
2023-05-19T19:18:47.162Z,17.69
2023-05-19T19:21:14.731Z,17.55
2023-05-19T19:23:42.856Z,17.62
2023-05-19T19:26:11.279Z,17.36
2023-05-19T19:28:38.799Z,17.47
2023-05-19T19:31:06.153Z,17.59
2023-05-19T19:33:33.423Z,17.59
2023-05-19T19:36:01.418Z,17.56
2023-05-19T19:38:28.696Z,17.42
2023-05-19T19:40:56.007Z,17.43
2023-05-19T19:43:23.283Z,17.39
2023-05-19T19:46:04.256Z,17.42
2023-05-19T19:48:31.589Z,17.37
2023-05-19T19:51:04.554Z,17.31
2023-05-19T19:53:31.960Z,17.29
2023-05-19T19:56:02.293Z,17.32
2023-05-19T19:58:30.205Z,17.38
2023-05-19T20:00:59.682Z,17.42
2023-05-19T20:03:27.900Z,17.39
2023-05-19T20:05:56.860Z,17.36
2023-05-19T20:08:25.521Z,17.43
2023-05-19T20:10:53.563Z,17.42
2023-05-19T20:13:21.896Z,17.43
2023-05-19T20:15:49.910Z,17.42
2023-05-19T20:18:43.036Z,17.34
2023-05-19T20:21:11.890Z,17.39
2023-05-19T20:23:40.795Z,17.20
2023-05-19T20:26:11.939Z,17.22
2023-05-19T20:28:41.451Z,17.12
2023-05-19T20:31:08.894Z,16.99
2023-05-19T20:33:36.335Z,17.05
2023-05-19T20:36:06.088Z,17.09
2023-05-19T20:38:33.380Z,17.11
2023-05-19T20:41:01.970Z,17.00
2023-05-19T20:43:29.322Z,17.01
2023-05-19T20:45:56.816Z,16.96
2023-05-19T20:48:24.112Z,16.87
2023-05-19T20:50:53.272Z,16.83
2023-05-19T20:53:21.745Z,16.90
2023-05-19T20:55:49.065Z,16.99
2023-05-19T20:58:16.429Z,16.99
2023-05-19T21:00:43.698Z,17.00
2023-05-19T21:03:11.897Z,16.77
2023-05-19T21:05:39.380Z,16.79
2023-05-19T21:08:12.851Z,16.79
2023-05-19T21:10:43.520Z,16.80
2023-05-19T21:13:11.098Z,16.48
2023-05-19T21:15:38.623Z,16.61
2023-05-19T21:18:07.260Z,16.59
2023-05-19T21:20:36.134Z,16.63
2023-05-19T21:23:03.666Z,16.76
2023-05-19T21:25:31.761Z,16.52
2023-05-19T21:27:59.300Z,16.49
2023-05-19T21:30:26.668Z,16.62
2023-05-19T21:32:54.023Z,16.70
2023-05-19T21:35:21.324Z,16.57
2023-05-19T21:37:48.768Z,16.48
2023-05-19T21:40:16.184Z,16.49
2023-05-19T21:42:43.437Z,16.52
2023-05-19T21:45:11.365Z,16.51
2023-05-19T21:47:38.933Z,16.41
2023-05-19T21:50:08.039Z,16.40
2023-05-19T21:52:36.530Z,16.41
2023-05-19T21:55:04.535Z,16.38
2023-05-19T21:57:31.696Z,16.37
2023-05-19T21:59:58.906Z,16.26
2023-05-19T22:02:26.617Z,16.16
2023-05-19T22:04:54.080Z,15.98
2023-05-19T22:07:26.792Z,15.84
2023-05-19T22:09:54.635Z,15.83
2023-05-19T22:12:24.194Z,15.73
2023-05-19T22:14:52.171Z,15.80
2023-05-19T22:17:19.598Z,15.81
2023-05-19T22:19:47.310Z,15.65
2023-05-19T22:22:15.479Z,15.60
2023-05-19T22:24:43.611Z,15.57
2023-05-19T22:27:11.584Z,15.49
2023-05-19T22:29:39.130Z,15.51
2023-05-19T22:32:12.309Z,15.50
2023-05-19T22:34:40.316Z,15.53
2023-05-19T22:37:07.801Z,15.51
2023-05-19T22:39:34.958Z,15.46
2023-05-19T22:42:02.635Z,15.39
2023-05-19T22:44:29.876Z,15.36
2023-05-19T22:46:57.088Z,15.38
2023-05-19T22:49:24.336Z,15.45
2023-05-19T22:51:52.122Z,15.48
2023-05-19T22:54:19.942Z,15.19
2023-05-19T22:56:49.035Z,15.20
2023-05-19T22:59:17.918Z,15.26
2023-05-19T23:01:46.534Z,15.20
2023-05-19T23:04:15.309Z,15.38
2023-05-19T23:06:42.762Z,15.34
2023-05-19T23:09:18.002Z,15.33
2023-05-19T23:11:46.246Z,15.39
2023-05-19T23:14:14.056Z,15.24
2023-05-19T23:16:41.536Z,15.38
2023-05-19T23:19:09.497Z,15.37
2023-05-19T23:21:37.390Z,15.37
2023-05-19T23:24:06.688Z,15.37
2023-05-19T23:26:34.022Z,15.40
2023-05-19T23:29:01.183Z,15.36
2023-05-19T23:31:28.647Z,15.35
2023-05-19T23:33:55.971Z,15.44
2023-05-19T23:36:23.482Z,15.45
2023-05-19T23:38:50.935Z,15.48
2023-05-19T23:41:18.073Z,15.34
2023-05-19T23:43:45.282Z,15.46
2023-05-19T23:46:12.653Z,15.41
2023-05-19T23:48:39.962Z,15.25
2023-05-19T23:51:07.816Z,15.28
2023-05-19T23:53:35.485Z,15.35
2023-05-19T23:56:02.688Z,15.41
2023-05-19T23:58:29.939Z,15.40
